Flugplatz Saarlouis-Düren

Für EDRJ sind keine METAR/TAF Berichte vorhanden.
Es werden die Flugwettermeldungen vom Flugplatz Saarbrücken in 33 km Entfernung angezeigt.

Bericht für EDDR

vom 07.12. um 18:50 UTC

Wind 8 kt aus 110°

Sichtweite 10 km oder mehr

gute Sicht, keine Wolken < 5000 ft, keine CB, keine Wettererscheinungen (CAVOK)

Temperatur 3.0°C

Taupunkt 1.0°C

Luftfeuchtigkeit 87%

Luftdruck 1003 hPa

keine wesentliche Wetteränderung innerhalb den nächsten 2 Stunden zu erwarten

EDDR 071850Z 11008KT CAVOK 03/01 Q1003 NOSIG

Prognose für EDDR

vom 07.12. um 17:00 UTC

Zwischen 18:00 UTC und 22:00 UTC

Wind 6 kt aus 120°

Sichtweite 10 km oder mehr

gering bewölkt in 2500 ft


Zwischen 22:00 UTC und 02:00 UTC zeitweise

Sichtweite 4000 m

Regen


Zwischen 22:00 und 00:00 UTC übergehend zu

Wind 10 kt aus 190°

Sichtweite 10 km oder mehr

aufgebrochene Bewölkung in 1200 ft


Am 08.12. zwischen 02:00 UTC und 10:00 UTC zeitweise mit einer Wahrscheinlichkeit von 30%

Sichtweite 3000 m

feuchter Dunst

aufgebrochene Bewölkung in 600 ft


Am 08.12. zwischen 10:00 und 13:00 UTC übergehend zu

Wind 5 kt aus 220°

Sichtweite 10 km oder mehr

aufgebrochene Bewölkung in 1500 ft

TAF EDDR 071700Z 0718/0818 12006KT 9999 FEW025 BECMG 0722/0724 19010KT BKN012 TEMPO 0722/0802 4000 RA PROB30 TEMPO 0802/0810 3000 BR BKN006 BECMG 0810/0813 22005KT BKN015
Impressum